sensor_id;sensor_type;location;lat;lon;timestamp;P1;durP1;ratioP1;P2;durP2;ratioP2
54139;SDS011;40046;53.254;5.900;2023-10-31T00:02:00;13.32;;;4.78;;
54139;SDS011;40046;53.254;5.900;2023-10-31T00:04:27;12.23;;;4.57;;
54139;SDS011;40046;53.254;5.900;2023-10-31T00:07:02;8.70;;;4.05;;
54139;SDS011;40046;53.254;5.900;2023-10-31T00:09:31;11.40;;;4.63;;
54139;SDS011;40046;53.254;5.900;2023-10-31T00:12:00;7.78;;;3.45;;
54139;SDS011;40046;53.254;5.900;2023-10-31T00:14:40;9.40;;;3.95;;
54139;SDS011;40046;53.254;5.900;2023-10-31T00:17:12;9.48;;;3.85;;
54139;SDS011;40046;53.254;5.900;2023-10-31T00:19:38;8.27;;;3.55;;
54139;SDS011;40046;53.254;5.900;2023-10-31T00:22:08;6.88;;;3.58;;
54139;SDS011;40046;53.254;5.900;2023-10-31T00:24:40;7.10;;;2.95;;
54139;SDS011;40046;53.254;5.900;2023-10-31T00:27:07;10.82;;;3.40;;
54139;SDS011;40046;53.254;5.900;2023-10-31T00:29:34;14.45;;;4.00;;
54139;SDS011;40046;53.254;5.900;2023-10-31T00:32:21;10.38;;;3.13;;
54139;SDS011;40046;53.254;5.900;2023-10-31T00:35:07;8.77;;;2.55;;
54139;SDS011;40046;53.254;5.900;2023-10-31T00:37:58;6.25;;;1.90;;
54139;SDS011;40046;53.254;5.900;2023-10-31T00:40:33;7.30;;;2.40;;
54139;SDS011;40046;53.254;5.900;2023-10-31T00:43:14;8.77;;;2.33;;
54139;SDS011;40046;53.254;5.900;2023-10-31T00:46:10;7.13;;;1.98;;
54139;SDS011;40046;53.254;5.900;2023-10-31T00:48:55;13.13;;;2.03;;
54139;SDS011;40046;53.254;5.900;2023-10-31T00:51:34;6.35;;;1.60;;
54139;SDS011;40046;53.254;5.900;2023-10-31T00:54:26;6.45;;;1.60;;
54139;SDS011;40046;53.254;5.900;2023-10-31T00:57:01;4.85;;;1.23;;
54139;SDS011;40046;53.254;5.900;2023-10-31T01:00:32;7.80;;;1.63;;
54139;SDS011;40046;53.254;5.900;2023-10-31T01:03:24;7.03;;;2.05;;
54139;SDS011;40046;53.254;5.900;2023-10-31T01:06:07;9.68;;;2.53;;
54139;SDS011;40046;53.254;5.900;2023-10-31T01:08:36;7.60;;;2.92;;
54139;SDS011;40046;53.254;5.900;2023-10-31T01:11:34;8.90;;;2.25;;
54139;SDS011;40046;53.254;5.900;2023-10-31T01:18:05;12.57;;;3.78;;
54139;SDS011;40046;53.254;5.900;2023-10-31T01:20:32;10.77;;;4.13;;
54139;SDS011;40046;53.254;5.900;2023-10-31T01:23:02;9.80;;;4.82;;
54139;SDS011;40046;53.254;5.900;2023-10-31T01:25:33;11.15;;;4.35;;
54139;SDS011;40046;53.254;5.900;2023-10-31T01:28:06;10.60;;;3.97;;
54139;SDS011;40046;53.254;5.900;2023-10-31T01:31:04;17.25;;;4.18;;
54139;SDS011;40046;53.254;5.900;2023-10-31T01:33:40;15.05;;;5.97;;
54139;SDS011;40046;53.254;5.900;2023-10-31T01:36:06;10.05;;;3.50;;
54139;SDS011;40046;53.254;5.900;2023-10-31T01:38:38;13.32;;;3.55;;
54139;SDS011;40046;53.254;5.900;2023-10-31T01:41:13;12.60;;;3.03;;
54139;SDS011;40046;53.254;5.900;2023-10-31T01:43:43;10.32;;;2.72;;
54139;SDS011;40046;53.254;5.900;2023-10-31T01:46:14;15.07;;;4.38;;
54139;SDS011;40046;53.254;5.900;2023-10-31T01:48:46;9.88;;;2.35;;
54139;SDS011;40046;53.254;5.900;2023-10-31T01:51:20;13.30;;;2.75;;
54139;SDS011;40046;53.254;5.900;2023-10-31T01:54:20;12.80;;;2.92;;
54139;SDS011;40046;53.254;5.900;2023-10-31T02:00:04;13.23;;;2.95;;
54139;SDS011;40046;53.254;5.900;2023-10-31T02:03:02;18.35;;;2.92;;
54139;SDS011;40046;53.254;5.900;2023-10-31T02:05:40;11.90;;;2.53;;
54139;SDS011;40046;53.254;5.900;2023-10-31T02:11:21;10.70;;;3.25;;
54139;SDS011;40046;53.254;5.900;2023-10-31T02:13:54;13.65;;;3.47;;
54139;SDS011;40046;53.254;5.900;2023-10-31T02:16:25;10.57;;;2.35;;
54139;SDS011;40046;53.254;5.900;2023-10-31T02:18:52;11.13;;;3.15;;
54139;SDS011;40046;53.254;5.900;2023-10-31T02:21:21;10.40;;;3.00;;
54139;SDS011;40046;53.254;5.900;2023-10-31T02:24:01;10.88;;;2.83;;
54139;SDS011;40046;53.254;5.900;2023-10-31T02:26:37;9.80;;;2.60;;
54139;SDS011;40046;53.254;5.900;2023-10-31T02:29:03;16.63;;;3.20;;
54139;SDS011;40046;53.254;5.900;2023-10-31T02:31:30;15.50;;;2.97;;
54139;SDS011;40046;53.254;5.900;2023-10-31T02:33:56;12.05;;;2.60;;
54139;SDS011;40046;53.254;5.900;2023-10-31T02:36:23;15.43;;;2.42;;
54139;SDS011;40046;53.254;5.900;2023-10-31T02:38:49;11.68;;;3.45;;
54139;SDS011;40046;53.254;5.900;2023-10-31T02:41:15;13.57;;;3.00;;
54139;SDS011;40046;53.254;5.900;2023-10-31T02:43:42;18.35;;;4.78;;
54139;SDS011;40046;53.254;5.900;2023-10-31T02:46:08;13.75;;;3.28;;
54139;SDS011;40046;53.254;5.900;2023-10-31T02:48:37;13.07;;;3.20;;
54139;SDS011;40046;53.254;5.900;2023-10-31T02:51:06;15.18;;;3.35;;
54139;SDS011;40046;53.254;5.900;2023-10-31T02:53:33;17.20;;;4.13;;
54139;SDS011;40046;53.254;5.900;2023-10-31T02:55:59;13.98;;;4.32;;
54139;SDS011;40046;53.254;5.900;2023-10-31T02:58:25;12.15;;;2.90;;
54139;SDS011;40046;53.254;5.900;2023-10-31T03:00:53;20.67;;;3.38;;
54139;SDS011;40046;53.254;5.900;2023-10-31T03:03:22;17.55;;;4.63;;
54139;SDS011;40046;53.254;5.900;2023-10-31T03:05:49;18.75;;;4.72;;
54139;SDS011;40046;53.254;5.900;2023-10-31T03:08:15;13.13;;;2.92;;
54139;SDS011;40046;53.254;5.900;2023-10-31T03:10:46;13.27;;;2.35;;
54139;SDS011;40046;53.254;5.900;2023-10-31T03:13:15;10.80;;;2.22;;
54139;SDS011;40046;53.254;5.900;2023-10-31T03:15:41;8.40;;;2.47;;
54139;SDS011;40046;53.254;5.900;2023-10-31T03:18:08;12.32;;;2.78;;
54139;SDS011;40046;53.254;5.900;2023-10-31T03:20:34;8.07;;;2.65;;
54139;SDS011;40046;53.254;5.900;2023-10-31T03:23:00;9.13;;;2.72;;
54139;SDS011;40046;53.254;5.900;2023-10-31T03:25:27;10.43;;;2.50;;
54139;SDS011;40046;53.254;5.900;2023-10-31T03:27:53;8.82;;;2.80;;
54139;SDS011;40046;53.254;5.900;2023-10-31T03:30:19;13.88;;;2.85;;
54139;SDS011;40046;53.254;5.900;2023-10-31T03:32:45;12.05;;;2.60;;
54139;SDS011;40046;53.254;5.900;2023-10-31T03:35:11;14.13;;;2.88;;
54139;SDS011;40046;53.254;5.900;2023-10-31T03:37:37;9.93;;;2.28;;
54139;SDS011;40046;53.254;5.900;2023-10-31T03:40:07;8.27;;;2.50;;
54139;SDS011;40046;53.254;5.900;2023-10-31T03:42:34;8.43;;;2.17;;
54139;SDS011;40046;53.254;5.900;2023-10-31T03:45:01;10.70;;;2.20;;
54139;SDS011;40046;53.254;5.900;2023-10-31T03:47:36;14.45;;;2.05;;
54139;SDS011;40046;53.254;5.900;2023-10-31T03:50:02;10.30;;;1.98;;
54139;SDS011;40046;53.254;5.900;2023-10-31T03:52:32;9.88;;;1.85;;
54139;SDS011;40046;53.254;5.900;2023-10-31T03:54:58;8.48;;;1.80;;
54139;SDS011;40046;53.254;5.900;2023-10-31T03:57:27;7.03;;;1.58;;
54139;SDS011;40046;53.254;5.900;2023-10-31T03:59:53;11.82;;;2.35;;
54139;SDS011;40046;53.254;5.900;2023-10-31T04:02:26;9.45;;;2.25;;
54139;SDS011;40046;53.254;5.900;2023-10-31T04:04:56;14.05;;;3.10;;
54139;SDS011;40046;53.254;5.900;2023-10-31T04:07:31;9.75;;;2.40;;
54139;SDS011;40046;53.254;5.900;2023-10-31T04:09:58;11.95;;;2.72;;
54139;SDS011;40046;53.254;5.900;2023-10-31T04:12:27;10.48;;;2.63;;
54139;SDS011;40046;53.254;5.900;2023-10-31T04:14:53;5.75;;;1.60;;
54139;SDS011;40046;53.254;5.900;2023-10-31T04:17:19;6.22;;;1.10;;
54139;SDS011;40046;53.254;5.900;2023-10-31T04:19:45;6.82;;;1.60;;
54139;SDS011;40046;53.254;5.900;2023-10-31T04:22:14;6.97;;;1.10;;
54139;SDS011;40046;53.254;5.900;2023-10-31T04:24:43;6.05;;;1.08;;
54139;SDS011;40046;53.254;5.900;2023-10-31T04:27:09;9.02;;;1.55;;
54139;SDS011;40046;53.254;5.900;2023-10-31T04:29:39;5.05;;;1.52;;
54139;SDS011;40046;53.254;5.900;2023-10-31T04:32:05;7.13;;;1.48;;
54139;SDS011;40046;53.254;5.900;2023-10-31T04:34:32;10.75;;;2.00;;
54139;SDS011;40046;53.254;5.900;2023-10-31T04:37:01;6.22;;;1.45;;
54139;SDS011;40046;53.254;5.900;2023-10-31T04:39:27;7.65;;;1.70;;
54139;SDS011;40046;53.254;5.900;2023-10-31T04:41:53;5.82;;;1.38;;
54139;SDS011;40046;53.254;5.900;2023-10-31T04:44:20;4.38;;;1.48;;
54139;SDS011;40046;53.254;5.900;2023-10-31T04:46:47;7.50;;;1.55;;
54139;SDS011;40046;53.254;5.900;2023-10-31T04:49:13;9.85;;;1.25;;
54139;SDS011;40046;53.254;5.900;2023-10-31T04:51:41;6.18;;;1.20;;
54139;SDS011;40046;53.254;5.900;2023-10-31T04:54:07;6.90;;;1.40;;
54139;SDS011;40046;53.254;5.900;2023-10-31T04:56:33;8.10;;;1.63;;
54139;SDS011;40046;53.254;5.900;2023-10-31T04:58:59;6.88;;;1.33;;
54139;SDS011;40046;53.254;5.900;2023-10-31T05:01:26;10.13;;;1.65;;
54139;SDS011;40046;53.254;5.900;2023-10-31T05:03:52;7.93;;;1.58;;
54139;SDS011;40046;53.254;5.900;2023-10-31T05:06:21;4.40;;;1.52;;
54139;SDS011;40046;53.254;5.900;2023-10-31T05:08:51;4.60;;;1.13;;
54139;SDS011;40046;53.254;5.900;2023-10-31T05:11:17;9.98;;;1.67;;
54139;SDS011;40046;53.254;5.900;2023-10-31T05:13:44;7.03;;;1.55;;
54139;SDS011;40046;53.254;5.900;2023-10-31T05:16:10;7.47;;;1.27;;
54139;SDS011;40046;53.254;5.900;2023-10-31T05:18:37;5.85;;;1.63;;
54139;SDS011;40046;53.254;5.900;2023-10-31T05:21:04;5.40;;;1.17;;
54139;SDS011;40046;53.254;5.900;2023-10-31T05:23:30;7.97;;;1.58;;
54139;SDS011;40046;53.254;5.900;2023-10-31T05:25:57;5.00;;;1.02;;
54139;SDS011;40046;53.254;5.900;2023-10-31T05:28:23;10.20;;;1.45;;
54139;SDS011;40046;53.254;5.900;2023-10-31T05:30:49;7.28;;;1.92;;
54139;SDS011;40046;53.254;5.900;2023-10-31T05:33:16;7.20;;;1.60;;
54139;SDS011;40046;53.254;5.900;2023-10-31T05:35:45;6.13;;;1.20;;
54139;SDS011;40046;53.254;5.900;2023-10-31T05:38:11;8.80;;;2.38;;
54139;SDS011;40046;53.254;5.900;2023-10-31T05:40:37;12.32;;;1.75;;
54139;SDS011;40046;53.254;5.900;2023-10-31T05:43:04;11.05;;;2.05;;
54139;SDS011;40046;53.254;5.900;2023-10-31T05:45:30;3.75;;;1.10;;
54139;SDS011;40046;53.254;5.900;2023-10-31T05:47:56;7.22;;;1.40;;
54139;SDS011;40046;53.254;5.900;2023-10-31T05:50:22;9.73;;;1.70;;
54139;SDS011;40046;53.254;5.900;2023-10-31T05:52:48;5.18;;;0.85;;
54139;SDS011;40046;53.254;5.900;2023-10-31T05:55:15;6.25;;;1.17;;
54139;SDS011;40046;53.254;5.900;2023-10-31T05:57:41;12.77;;;2.20;;
54139;SDS011;40046;53.254;5.900;2023-10-31T06:00:07;8.68;;;1.88;;
54139;SDS011;40046;53.254;5.900;2023-10-31T06:02:40;10.02;;;2.25;;
54139;SDS011;40046;53.254;5.900;2023-10-31T06:05:06;10.45;;;2.72;;
54139;SDS011;40046;53.254;5.900;2023-10-31T06:07:32;9.35;;;1.92;;
54139;SDS011;40046;53.254;5.900;2023-10-31T06:09:58;5.05;;;1.45;;
54139;SDS011;40046;53.254;5.900;2023-10-31T06:12:24;7.68;;;1.73;;
54139;SDS011;40046;53.254;5.900;2023-10-31T06:14:52;7.05;;;1.83;;
54139;SDS011;40046;53.254;5.900;2023-10-31T06:17:18;11.52;;;2.45;;
54139;SDS011;40046;53.254;5.900;2023-10-31T06:19:44;11.52;;;1.98;;
54139;SDS011;40046;53.254;5.900;2023-10-31T06:22:12;6.95;;;2.08;;
54139;SDS011;40046;53.254;5.900;2023-10-31T06:24:38;12.27;;;1.83;;
54139;SDS011;40046;53.254;5.900;2023-10-31T06:27:05;9.35;;;1.85;;
54139;SDS011;40046;53.254;5.900;2023-10-31T06:29:32;8.98;;;1.80;;
54139;SDS011;40046;53.254;5.900;2023-10-31T06:31:58;8.13;;;1.80;;
54139;SDS011;40046;53.254;5.900;2023-10-31T06:34:24;6.18;;;1.95;;
54139;SDS011;40046;53.254;5.900;2023-10-31T06:36:51;12.43;;;1.90;;
54139;SDS011;40046;53.254;5.900;2023-10-31T06:39:17;8.32;;;1.50;;
54139;SDS011;40046;53.254;5.900;2023-10-31T06:41:43;9.15;;;1.58;;
54139;SDS011;40046;53.254;5.900;2023-10-31T06:44:09;7.35;;;1.83;;
54139;SDS011;40046;53.254;5.900;2023-10-31T06:46:35;8.43;;;2.53;;
54139;SDS011;40046;53.254;5.900;2023-10-31T06:49:02;4.43;;;1.00;;
54139;SDS011;40046;53.254;5.900;2023-10-31T06:51:28;1.60;;;0.30;;
54139;SDS011;40046;53.254;5.900;2023-10-31T06:53:54;6.90;;;0.50;;
54139;SDS011;40046;53.254;5.900;2023-10-31T06:56:20;5.20;;;0.57;;
54139;SDS011;40046;53.254;5.900;2023-10-31T06:58:46;3.95;;;0.40;;
54139;SDS011;40046;53.254;5.900;2023-10-31T07:01:12;8.32;;;1.65;;
54139;SDS011;40046;53.254;5.900;2023-10-31T07:03:43;5.05;;;0.82;;
54139;SDS011;40046;53.254;5.900;2023-10-31T07:06:09;5.00;;;0.50;;
54139;SDS011;40046;53.254;5.900;2023-10-31T07:08:35;5.47;;;1.80;;
54139;SDS011;40046;53.254;5.900;2023-10-31T07:11:02;10.60;;;1.52;;
54139;SDS011;40046;53.254;5.900;2023-10-31T07:13:28;8.13;;;0.85;;
54139;SDS011;40046;53.254;5.900;2023-10-31T07:15:54;4.75;;;0.77;;
54139;SDS011;40046;53.254;5.900;2023-10-31T07:18:23;3.80;;;0.82;;
54139;SDS011;40046;53.254;5.900;2023-10-31T07:20:49;11.73;;;1.13;;
54139;SDS011;40046;53.254;5.900;2023-10-31T07:23:15;13.35;;;1.63;;
54139;SDS011;40046;53.254;5.900;2023-10-31T07:25:41;8.75;;;1.30;;
54139;SDS011;40046;53.254;5.900;2023-10-31T07:28:08;5.43;;;1.27;;
54139;SDS011;40046;53.254;5.900;2023-10-31T07:30:34;7.20;;;1.10;;
54139;SDS011;40046;53.254;5.900;2023-10-31T07:33:01;6.38;;;2.45;;
54139;SDS011;40046;53.254;5.900;2023-10-31T07:35:27;9.43;;;2.15;;
54139;SDS011;40046;53.254;5.900;2023-10-31T07:37:53;7.70;;;1.10;;
54139;SDS011;40046;53.254;5.900;2023-10-31T07:40:19;8.35;;;0.77;;
54139;SDS011;40046;53.254;5.900;2023-10-31T07:42:45;7.50;;;0.90;;
54139;SDS011;40046;53.254;5.900;2023-10-31T07:45:11;8.05;;;0.93;;
54139;SDS011;40046;53.254;5.900;2023-10-31T07:47:37;8.23;;;0.77;;
54139;SDS011;40046;53.254;5.900;2023-10-31T07:50:04;7.95;;;1.05;;
54139;SDS011;40046;53.254;5.900;2023-10-31T07:52:31;6.25;;;1.13;;
54139;SDS011;40046;53.254;5.900;2023-10-31T07:54:57;5.78;;;0.60;;
54139;SDS011;40046;53.254;5.900;2023-10-31T07:57:23;12.75;;;1.50;;
54139;SDS011;40046;53.254;5.900;2023-10-31T07:59:49;10.05;;;1.50;;
54139;SDS011;40046;53.254;5.900;2023-10-31T08:02:15;12.63;;;1.30;;
54139;SDS011;40046;53.254;5.900;2023-10-31T08:04:42;9.75;;;2.08;;
54139;SDS011;40046;53.254;5.900;2023-10-31T08:07:08;14.73;;;2.30;;
54139;SDS011;40046;53.254;5.900;2023-10-31T08:09:34;14.80;;;1.92;;
54139;SDS011;40046;53.254;5.900;2023-10-31T08:12:00;9.93;;;1.50;;
54139;SDS011;40046;53.254;5.900;2023-10-31T08:14:26;10.50;;;1.55;;
54139;SDS011;40046;53.254;5.900;2023-10-31T08:16:53;11.50;;;2.15;;
54139;SDS011;40046;53.254;5.900;2023-10-31T08:19:19;7.53;;;1.73;;
54139;SDS011;40046;53.254;5.900;2023-10-31T08:21:45;8.82;;;1.60;;
54139;SDS011;40046;53.254;5.900;2023-10-31T08:24:11;9.75;;;1.38;;
54139;SDS011;40046;53.254;5.900;2023-10-31T08:26:38;7.50;;;1.20;;
54139;SDS011;40046;53.254;5.900;2023-10-31T08:29:05;6.78;;;1.17;;
54139;SDS011;40046;53.254;5.900;2023-10-31T08:31:31;6.78;;;1.10;;
54139;SDS011;40046;53.254;5.900;2023-10-31T08:33:57;10.00;;;1.65;;
54139;SDS011;40046;53.254;5.900;2023-10-31T08:36:23;6.35;;;1.00;;
54139;SDS011;40046;53.254;5.900;2023-10-31T08:38:49;9.43;;;1.38;;
54139;SDS011;40046;53.254;5.900;2023-10-31T08:41:16;4.93;;;1.98;;
54139;SDS011;40046;53.254;5.900;2023-10-31T08:43:45;6.03;;;1.23;;
54139;SDS011;40046;53.254;5.900;2023-10-31T08:46:11;5.30;;;0.88;;
54139;SDS011;40046;53.254;5.900;2023-10-31T08:48:38;7.65;;;0.90;;
54139;SDS011;40046;53.254;5.900;2023-10-31T08:51:04;9.13;;;1.40;;
54139;SDS011;40046;53.254;5.900;2023-10-31T08:53:31;6.13;;;0.90;;
54139;SDS011;40046;53.254;5.900;2023-10-31T08:55:57;6.32;;;1.13;;
54139;SDS011;40046;53.254;5.900;2023-10-31T08:58:23;6.68;;;0.90;;
54139;SDS011;40046;53.254;5.900;2023-10-31T09:00:49;4.07;;;0.82;;
54139;SDS011;40046;53.254;5.900;2023-10-31T09:03:15;6.28;;;0.80;;
54139;SDS011;40046;53.254;5.900;2023-10-31T09:05:41;6.15;;;0.80;;
54139;SDS011;40046;53.254;5.900;2023-10-31T09:08:09;7.20;;;1.08;;
54139;SDS011;40046;53.254;5.900;2023-10-31T09:10:36;7.00;;;0.90;;
54139;SDS011;40046;53.254;5.900;2023-10-31T09:13:03;6.75;;;1.23;;
54139;SDS011;40046;53.254;5.900;2023-10-31T09:15:30;9.02;;;1.20;;
54139;SDS011;40046;53.254;5.900;2023-10-31T09:17:56;10.30;;;1.13;;
54139;SDS011;40046;53.254;5.900;2023-10-31T09:20:22;3.88;;;1.02;;
54139;SDS011;40046;53.254;5.900;2023-10-31T09:22:48;6.47;;;0.90;;
54139;SDS011;40046;53.254;5.900;2023-10-31T09:25:14;8.90;;;1.95;;
54139;SDS011;40046;53.254;5.900;2023-10-31T09:27:40;7.95;;;1.35;;
54139;SDS011;40046;53.254;5.900;2023-10-31T09:30:07;8.38;;;1.02;;
54139;SDS011;40046;53.254;5.900;2023-10-31T09:32:33;7.40;;;2.08;;
54139;SDS011;40046;53.254;5.900;2023-10-31T09:35:00;5.97;;;0.75;;
54139;SDS011;40046;53.254;5.900;2023-10-31T09:37:26;6.97;;;1.10;;
54139;SDS011;40046;53.254;5.900;2023-10-31T09:39:52;5.55;;;1.05;;
54139;SDS011;40046;53.254;5.900;2023-10-31T09:42:18;5.78;;;0.98;;
54139;SDS011;40046;53.254;5.900;2023-10-31T09:44:44;8.50;;;1.73;;
54139;SDS011;40046;53.254;5.900;2023-10-31T09:47:10;7.90;;;1.35;;
54139;SDS011;40046;53.254;5.900;2023-10-31T09:49:38;7.28;;;1.15;;
54139;SDS011;40046;53.254;5.900;2023-10-31T09:52:04;11.35;;;1.00;;
54139;SDS011;40046;53.254;5.900;2023-10-31T09:54:32;7.78;;;1.17;;
54139;SDS011;40046;53.254;5.900;2023-10-31T09:57:00;5.30;;;1.13;;
54139;SDS011;40046;53.254;5.900;2023-10-31T09:59:26;5.00;;;0.70;;
54139;SDS011;40046;53.254;5.900;2023-10-31T10:01:52;6.80;;;1.10;;
54139;SDS011;40046;53.254;5.900;2023-10-31T10:04:18;3.97;;;0.60;;
54139;SDS011;40046;53.254;5.900;2023-10-31T10:06:52;6.05;;;0.80;;
54139;SDS011;40046;53.254;5.900;2023-10-31T10:09:27;7.47;;;1.35;;
54139;SDS011;40046;53.254;5.900;2023-10-31T10:11:53;3.88;;;0.63;;
54139;SDS011;40046;53.254;5.900;2023-10-31T10:14:20;6.18;;;1.08;;
54139;SDS011;40046;53.254;5.900;2023-10-31T10:16:48;3.50;;;1.27;;
54139;SDS011;40046;53.254;5.900;2023-10-31T10:21:48;8.88;;;1.63;;
54139;SDS011;40046;53.254;5.900;2023-10-31T10:24:15;9.45;;;2.10;;
54139;SDS011;40046;53.254;5.900;2023-10-31T10:26:41;6.57;;;1.10;;
54139;SDS011;40046;53.254;5.900;2023-10-31T10:29:08;5.63;;;0.93;;
54139;SDS011;40046;53.254;5.900;2023-10-31T10:31:34;5.43;;;1.25;;
54139;SDS011;40046;53.254;5.900;2023-10-31T10:34:00;4.00;;;0.88;;
54139;SDS011;40046;53.254;5.900;2023-10-31T10:36:27;9.43;;;1.33;;
54139;SDS011;40046;53.254;5.900;2023-10-31T10:38:55;4.22;;;0.88;;
54139;SDS011;40046;53.254;5.900;2023-10-31T10:41:23;8.80;;;1.25;;
54139;SDS011;40046;53.254;5.900;2023-10-31T10:43:53;10.30;;;1.17;;
54139;SDS011;40046;53.254;5.900;2023-10-31T10:46:21;9.48;;;1.33;;
54139;SDS011;40046;53.254;5.900;2023-10-31T10:48:53;6.38;;;1.05;;
54139;SDS011;40046;53.254;5.900;2023-10-31T10:51:24;8.55;;;1.50;;
54139;SDS011;40046;53.254;5.900;2023-10-31T10:53:52;6.57;;;0.93;;
54139;SDS011;40046;53.254;5.900;2023-10-31T10:56:26;7.13;;;1.10;;
54139;SDS011;40046;53.254;5.900;2023-10-31T10:59:05;9.07;;;1.23;;
54139;SDS011;40046;53.254;5.900;2023-10-31T11:01:33;8.90;;;1.58;;
54139;SDS011;40046;53.254;5.900;2023-10-31T11:04:03;7.53;;;1.38;;
54139;SDS011;40046;53.254;5.900;2023-10-31T11:06:31;6.90;;;1.30;;
54139;SDS011;40046;53.254;5.900;2023-10-31T11:08:57;6.25;;;1.08;;
54139;SDS011;40046;53.254;5.900;2023-10-31T11:11:24;9.27;;;1.25;;
54139;SDS011;40046;53.254;5.900;2023-10-31T11:13:50;7.80;;;1.60;;
54139;SDS011;40046;53.254;5.900;2023-10-31T11:16:17;8.45;;;1.50;;
54139;SDS011;40046;53.254;5.900;2023-10-31T11:18:46;6.60;;;1.40;;
54139;SDS011;40046;53.254;5.900;2023-10-31T11:21:12;7.97;;;1.33;;
54139;SDS011;40046;53.254;5.900;2023-10-31T11:23:38;9.85;;;1.38;;
54139;SDS011;40046;53.254;5.900;2023-10-31T11:26:06;9.27;;;3.42;;
54139;SDS011;40046;53.254;5.900;2023-10-31T11:28:33;11.43;;;2.72;;
54139;SDS011;40046;53.254;5.900;2023-10-31T11:30:59;6.82;;;0.98;;
54139;SDS011;40046;53.254;5.900;2023-10-31T11:33:27;7.82;;;1.10;;
54139;SDS011;40046;53.254;5.900;2023-10-31T11:36:00;7.60;;;2.45;;
54139;SDS011;40046;53.254;5.900;2023-10-31T11:38:31;9.55;;;1.20;;
54139;SDS011;40046;53.254;5.900;2023-10-31T11:41:01;7.05;;;1.40;;
54139;SDS011;40046;53.254;5.900;2023-10-31T11:46:02;6.38;;;1.30;;
54139;SDS011;40046;53.254;5.900;2023-10-31T11:48:48;5.38;;;0.98;;
54139;SDS011;40046;53.254;5.900;2023-10-31T11:51:16;10.93;;;2.47;;
54139;SDS011;40046;53.254;5.900;2023-10-31T11:53:43;13.18;;;2.10;;
54139;SDS011;40046;53.254;5.900;2023-10-31T11:56:18;9.55;;;1.63;;
54139;SDS011;40046;53.254;5.900;2023-10-31T11:58:44;10.48;;;1.45;;
54139;SDS011;40046;53.254;5.900;2023-10-31T12:01:11;5.68;;;1.20;;
54139;SDS011;40046;53.254;5.900;2023-10-31T12:06:04;4.93;;;1.10;;
54139;SDS011;40046;53.254;5.900;2023-10-31T12:08:31;5.13;;;0.80;;
54139;SDS011;40046;53.254;5.900;2023-10-31T12:11:05;7.10;;;1.55;;
54139;SDS011;40046;53.254;5.900;2023-10-31T12:13:31;9.90;;;1.38;;
54139;SDS011;40046;53.254;5.900;2023-10-31T12:15:57;8.15;;;2.20;;
54139;SDS011;40046;53.254;5.900;2023-10-31T12:18:26;5.38;;;0.85;;
54139;SDS011;40046;53.254;5.900;2023-10-31T12:20:52;7.90;;;2.97;;
54139;SDS011;40046;53.254;5.900;2023-10-31T12:23:18;5.18;;;1.10;;
54139;SDS011;40046;53.254;5.900;2023-10-31T12:25:48;9.20;;;1.17;;
54139;SDS011;40046;53.254;5.900;2023-10-31T12:28:21;8.57;;;1.02;;
54139;SDS011;40046;53.254;5.900;2023-10-31T12:30:48;5.15;;;1.20;;
54139;SDS011;40046;53.254;5.900;2023-10-31T12:33:15;8.10;;;1.10;;
54139;SDS011;40046;53.254;5.900;2023-10-31T12:35:42;5.13;;;0.98;;
54139;SDS011;40046;53.254;5.900;2023-10-31T12:38:10;6.47;;;1.23;;
54139;SDS011;40046;53.254;5.900;2023-10-31T12:40:37;6.88;;;1.00;;
54139;SDS011;40046;53.254;5.900;2023-10-31T12:43:03;6.38;;;1.42;;
54139;SDS011;40046;53.254;5.900;2023-10-31T12:45:29;3.65;;;0.65;;
54139;SDS011;40046;53.254;5.900;2023-10-31T12:50:30;3.72;;;0.50;;
54139;SDS011;40046;53.254;5.900;2023-10-31T12:52:57;4.45;;;0.57;;
54139;SDS011;40046;53.254;5.900;2023-10-31T12:55:26;5.93;;;1.42;;
54139;SDS011;40046;53.254;5.900;2023-10-31T12:57:52;7.05;;;0.95;;
54139;SDS011;40046;53.254;5.900;2023-10-31T13:00:19;4.07;;;1.08;;
54139;SDS011;40046;53.254;5.900;2023-10-31T13:02:58;1.73;;;0.40;;
54139;SDS011;40046;53.254;5.900;2023-10-31T13:05:25;5.18;;;0.80;;
54139;SDS011;40046;53.254;5.900;2023-10-31T13:07:52;3.22;;;0.50;;
54139;SDS011;40046;53.254;5.900;2023-10-31T13:10:20;3.97;;;0.77;;
54139;SDS011;40046;53.254;5.900;2023-10-31T13:12:47;2.70;;;0.50;;
54139;SDS011;40046;53.254;5.900;2023-10-31T13:15:15;3.05;;;0.43;;
54139;SDS011;40046;53.254;5.900;2023-10-31T13:17:43;4.35;;;0.52;;
54139;SDS011;40046;53.254;5.900;2023-10-31T13:20:10;3.92;;;0.70;;
54139;SDS011;40046;53.254;5.900;2023-10-31T13:22:37;2.65;;;0.43;;
54139;SDS011;40046;53.254;5.900;2023-10-31T13:25:04;2.67;;;0.43;;
54139;SDS011;40046;53.254;5.900;2023-10-31T13:27:31;2.60;;;0.60;;
54139;SDS011;40046;53.254;5.900;2023-10-31T13:29:57;6.85;;;0.77;;
54139;SDS011;40046;53.254;5.900;2023-10-31T13:32:23;4.38;;;0.80;;
54139;SDS011;40046;53.254;5.900;2023-10-31T13:34:49;3.08;;;0.38;;
54139;SDS011;40046;53.254;5.900;2023-10-31T13:37:16;2.90;;;0.50;;
54139;SDS011;40046;53.254;5.900;2023-10-31T13:39:42;4.05;;;1.05;;
54139;SDS011;40046;53.254;5.900;2023-10-31T13:42:08;2.05;;;0.30;;
54139;SDS011;40046;53.254;5.900;2023-10-31T13:44:38;3.72;;;0.60;;
54139;SDS011;40046;53.254;5.900;2023-10-31T13:47:04;2.47;;;0.57;;
54139;SDS011;40046;53.254;5.900;2023-10-31T13:49:30;2.78;;;0.40;;
54139;SDS011;40046;53.254;5.900;2023-10-31T13:51:57;2.22;;;0.32;;
54139;SDS011;40046;53.254;5.900;2023-10-31T13:54:23;2.40;;;0.60;;
54139;SDS011;40046;53.254;5.900;2023-10-31T13:56:49;1.88;;;0.50;;
54139;SDS011;40046;53.254;5.900;2023-10-31T13:59:15;2.58;;;0.63;;
54139;SDS011;40046;53.254;5.900;2023-10-31T14:01:43;3.92;;;1.30;;
54139;SDS011;40046;53.254;5.900;2023-10-31T14:04:11;3.33;;;0.73;;
54139;SDS011;40046;53.254;5.900;2023-10-31T14:06:40;2.75;;;0.40;;
54139;SDS011;40046;53.254;5.900;2023-10-31T14:09:07;3.35;;;0.45;;
54139;SDS011;40046;53.254;5.900;2023-10-31T14:11:33;3.60;;;0.60;;
54139;SDS011;40046;53.254;5.900;2023-10-31T14:14:00;10.07;;;0.70;;
54139;SDS011;40046;53.254;5.900;2023-10-31T14:16:37;2.55;;;0.50;;
54139;SDS011;40046;53.254;5.900;2023-10-31T14:19:04;4.65;;;0.40;;
54139;SDS011;40046;53.254;5.900;2023-10-31T14:21:31;6.40;;;0.45;;
54139;SDS011;40046;53.254;5.900;2023-10-31T14:23:58;5.72;;;0.55;;
54139;SDS011;40046;53.254;5.900;2023-10-31T14:26:24;5.13;;;0.77;;
54139;SDS011;40046;53.254;5.900;2023-10-31T14:28:50;8.27;;;1.00;;
54139;SDS011;40046;53.254;5.900;2023-10-31T14:31:16;4.85;;;0.93;;
54139;SDS011;40046;53.254;5.900;2023-10-31T14:33:43;4.55;;;1.33;;
54139;SDS011;40046;53.254;5.900;2023-10-31T14:36:10;10.15;;;1.20;;
54139;SDS011;40046;53.254;5.900;2023-10-31T14:38:37;8.50;;;2.80;;
54139;SDS011;40046;53.254;5.900;2023-10-31T14:41:04;5.15;;;0.80;;
54139;SDS011;40046;53.254;5.900;2023-10-31T14:43:30;3.92;;;0.88;;
54139;SDS011;40046;53.254;5.900;2023-10-31T14:45:57;3.92;;;0.95;;
54139;SDS011;40046;53.254;5.900;2023-10-31T14:48:23;4.57;;;1.05;;
54139;SDS011;40046;53.254;5.900;2023-10-31T14:50:49;6.32;;;1.15;;
54139;SDS011;40046;53.254;5.900;2023-10-31T14:53:16;7.43;;;1.08;;
54139;SDS011;40046;53.254;5.900;2023-10-31T14:55:44;6.70;;;0.98;;
54139;SDS011;40046;53.254;5.900;2023-10-31T14:58:11;7.30;;;1.48;;
54139;SDS011;40046;53.254;5.900;2023-10-31T15:00:37;7.40;;;1.15;;
54139;SDS011;40046;53.254;5.900;2023-10-31T15:03:03;3.40;;;0.70;;
54139;SDS011;40046;53.254;5.900;2023-10-31T15:05:29;4.20;;;0.80;;
54139;SDS011;40046;53.254;5.900;2023-10-31T15:07:56;5.10;;;1.17;;
54139;SDS011;40046;53.254;5.900;2023-10-31T15:10:26;9.45;;;3.00;;
54139;SDS011;40046;53.254;5.900;2023-10-31T15:12:55;8.43;;;1.30;;